Time;durP1;ratioP1;P1;durP2;ratioP2;P2;SDS_P1;SDS_P2;PMS_P1;PMS_P2;Temp;Humidity;BMP_temperature;BMP_pressure;BME280_temperature;BME280_humidity;BME280_pressure;Samples;Min_cycle;Max_cycle;Signal;HPM_P1;HPM_P2
2022/05/22 00:01:55;;;;;;;9.45;4.95;;;11.40;99.90;;;;;;5141316;27;20118;-67
2022/05/22 00:04:21;;;;;;;10.93;4.78;;;11.30;99.90;;;;;;5143368;27;20072;-67
2022/05/22 00:06:47;;;;;;;9.65;5.07;;;11.40;99.90;;;;;;5144383;27;20035;-66
2022/05/22 00:09:13;;;;;;;12.27;5.57;;;11.40;99.90;;;;;;5146029;27;20026;-69
2022/05/22 00:11:38;;;;;;;12.05;5.15;;;11.40;99.90;;;;;;5144779;27;20595;-67
2022/05/22 00:14:04;;;;;;;14.57;5.80;;;11.40;99.90;;;;;;5141148;27;20046;-66
2022/05/22 00:16:42;;;;;;;10.35;5.47;;;11.40;99.90;;;;;;5140003;27;20038;-68
2022/05/22 00:19:10;;;;;;;12.20;5.55;;;11.40;99.90;;;;;;5146335;27;20051;-67
2022/05/22 00:21:36;;;;;;;13.82;6.03;;;11.40;99.90;;;;;;5144473;27;20058;-67
2022/05/22 00:24:03;;;;;;;11.57;5.30;;;11.30;99.90;;;;;;5141174;27;20035;-66
2022/05/22 00:26:29;;;;;;;13.82;6.40;;;11.40;99.90;;;;;;5146070;27;20117;-66
2022/05/22 00:28:54;;;;;;;13.45;6.13;;;11.40;99.90;;;;;;5144545;27;20050;-66
2022/05/22 00:31:20;;;;;;;11.70;5.82;;;11.30;99.90;;;;;;5144243;27;20027;-68
2022/05/22 00:33:46;;;;;;;15.88;5.32;;;11.30;99.90;;;;;;5140434;27;20118;-68
2022/05/22 00:36:12;;;;;;;14.15;6.20;;;11.30;99.90;;;;;;5144132;27;20106;-66
2022/05/22 00:38:38;;;;;;;12.68;5.53;;;11.30;99.90;;;;;;5144460;27;20118;-67
2022/05/22 00:41:06;;;;;;;13.52;5.28;;;11.30;99.90;;;;;;5145280;27;20035;-66
2022/05/22 00:43:36;;;;;;;10.90;5.72;;;11.20;99.90;;;;;;5136183;27;20039;-67
2022/05/22 00:46:05;;;;;;;13.45;5.50;;;11.20;99.90;;;;;;5143952;27;20113;-66
2022/05/22 00:48:32;;;;;;;14.15;6.03;;;11.20;99.90;;;;;;5140157;27;20073;-67
2022/05/22 00:51:03;;;;;;;10.70;6.10;;;11.20;99.90;;;;;;5144446;27;20054;-66
2022/05/22 00:53:32;;;;;;;16.40;5.97;;;11.20;99.90;;;;;;5139206;27;20066;-66
2022/05/22 00:56:00;;;;;;;12.73;6.13;;;11.20;99.90;;;;;;5141990;27;20034;-67
2022/05/22 00:58:29;;;;;;;12.70;6.15;;;11.10;99.90;;;;;;5145001;27;20091;-67
2022/05/22 01:00:55;;;;;;;11.93;5.65;;;11.20;99.90;;;;;;5143522;27;20130;-67
2022/05/22 01:03:27;;;;;;;14.60;6.28;;;11.20;99.90;;;;;;5138431;27;20527;-65
2022/05/22 01:06:00;;;;;;;11.93;5.80;;;11.20;99.90;;;;;;5139503;27;20045;-68
2022/05/22 01:08:25;;;;;;;14.15;5.85;;;11.20;99.90;;;;;;5121642;27;20118;-67
2022/05/22 01:11:03;;;;;;;11.65;5.63;;;11.20;99.90;;;;;;5117019;27;20118;-66
2022/05/22 01:13:35;;;;;;;16.10;5.88;;;11.10;99.90;;;;;;5120639;27;20062;-68
2022/05/22 01:16:03;;;;;;;14.57;5.78;;;11.10;99.90;;;;;;5136773;27;20043;-69
2022/05/22 01:18:29;;;;;;;13.07;5.80;;;11.10;99.90;;;;;;5115095;27;20058;-69
2022/05/22 01:20:55;;;;;;;14.70;6.20;;;11.00;99.90;;;;;;5104149;27;20039;-69
2022/05/22 01:23:23;;;;;;;13.82;6.15;;;11.00;99.90;;;;;;5115780;27;20041;-69
2022/05/22 01:25:49;;;;;;;11.35;5.70;;;10.90;99.90;;;;;;5137363;27;20113;-68
2022/05/22 01:28:17;;;;;;;13.57;6.22;;;10.90;99.90;;;;;;5144235;27;20035;-68
2022/05/22 01:30:43;;;;;;;15.93;5.82;;;10.80;99.90;;;;;;5143766;27;20424;-68
2022/05/22 01:33:08;;;;;;;10.80;5.43;;;10.80;99.90;;;;;;5117006;27;20039;-69
2022/05/22 01:35:38;;;;;;;12.85;5.50;;;10.80;99.90;;;;;;5113471;27;20078;-68
2022/05/22 01:38:04;;;;;;;11.27;5.68;;;10.80;99.90;;;;;;5142669;27;20038;-69
2022/05/22 01:40:33;;;;;;;11.30;6.38;;;10.80;99.90;;;;;;5141458;27;20034;-70
2022/05/22 01:42:59;;;;;;;11.43;5.63;;;10.80;99.90;;;;;;5109478;28;20103;-69
2022/05/22 01:45:26;;;;;;;11.82;6.00;;;10.80;99.90;;;;;;5143666;27;20050;-69
2022/05/22 01:47:52;;;;;;;10.95;5.78;;;10.80;99.90;;;;;;5140068;27;20098;-68
2022/05/22 01:50:18;;;;;;;11.35;5.95;;;10.80;99.90;;;;;;5121130;27;20391;-69
2022/05/22 01:52:44;;;;;;;11.93;6.30;;;10.80;99.90;;;;;;5142215;27;20035;-69
2022/05/22 01:55:12;;;;;;;15.95;6.82;;;10.80;99.90;;;;;;5140218;27;20049;-69
2022/05/22 01:57:38;;;;;;;10.45;5.45;;;10.70;99.90;;;;;;5142978;27;20371;-69
2022/05/22 02:00:07;;;;;;;11.77;5.30;;;10.70;99.90;;;;;;5143637;27;20047;-70
2022/05/22 02:02:33;;;;;;;12.52;5.88;;;10.70;99.90;;;;;;5140404;27;20063;-69
2022/05/22 02:04:59;;;;;;;12.95;5.75;;;10.70;99.90;;;;;;5123657;27;20147;-68
2022/05/22 02:10:09;;;;;;;10.82;5.47;;;10.70;99.90;;;;;;5142702;27;20042;-68
2022/05/22 02:12:35;;;;;;;11.13;5.47;;;10.70;99.90;;;;;;5135493;27;20163;-69
2022/05/22 02:15:01;;;;;;;9.70;5.53;;;10.80;99.90;;;;;;5140438;27;20129;-69
2022/05/22 02:17:27;;;;;;;11.52;5.60;;;10.70;99.90;;;;;;5144104;27;20049;-67
2022/05/22 02:19:52;;;;;;;12.85;5.70;;;10.70;99.90;;;;;;5141854;27;20067;-68
2022/05/22 02:22:18;;;;;;;9.77;5.45;;;10.60;99.90;;;;;;5142953;27;20114;-67
2022/05/22 02:24:53;;;;;;;12.63;6.20;;;10.60;99.90;;;;;;5142057;27;20179;-69
2022/05/22 02:27:19;;;;;;;10.13;6.00;;;10.50;99.90;;;;;;5141211;27;20039;-68
2022/05/22 02:29:45;;;;;;;11.55;6.05;;;10.40;99.90;;;;;;5141071;27;20050;-68
2022/05/22 02:32:11;;;;;;;11.25;5.97;;;10.40;99.90;;;;;;5143250;27;20031;-70
2022/05/22 02:34:37;;;;;;;14.60;6.03;;;10.40;99.90;;;;;;5140834;27;20027;-68
2022/05/22 02:37:02;;;;;;;10.82;6.05;;;10.40;99.90;;;;;;5141913;27;20402;-69
2022/05/22 02:39:28;;;;;;;11.65;6.10;;;10.40;99.90;;;;;;5142871;27;20045;-69
2022/05/22 02:42:00;;;;;;;12.40;6.70;;;10.30;99.90;;;;;;5142060;27;20031;-70
2022/05/22 02:44:25;;;;;;;14.10;6.70;;;10.30;99.90;;;;;;5139335;27;20031;-68
2022/05/22 02:46:51;;;;;;;12.10;6.30;;;10.40;99.90;;;;;;5120362;27;20046;-70
2022/05/22 02:49:16;;;;;;;13.43;6.07;;;10.30;99.90;;;;;;5141491;27;20508;-69
2022/05/22 02:51:42;;;;;;;13.40;6.57;;;10.20;99.90;;;;;;5140698;27;20043;-69
2022/05/22 02:54:09;;;;;;;11.60;6.05;;;10.20;99.90;;;;;;5121973;27;20371;-69
2022/05/22 02:56:35;;;;;;;10.82;6.43;;;10.20;99.90;;;;;;5141802;27;20048;-69
2022/05/22 02:59:00;;;;;;;9.27;5.78;;;10.30;99.90;;;;;;5141735;27;20100;-68
2022/05/22 03:01:26;;;;;;;11.93;5.85;;;10.20;99.90;;;;;;5142907;27;20134;-69
2022/05/22 03:03:52;;;;;;;13.05;6.18;;;10.20;99.90;;;;;;5120925;27;20438;-70
2022/05/22 03:09:01;;;;;;;11.35;5.97;;;10.20;99.90;;;;;;5139203;27;20122;-70
2022/05/22 03:11:27;;;;;;;10.38;5.57;;;10.20;99.90;;;;;;5142554;27;20113;-69
2022/05/22 03:13:53;;;;;;;11.40;5.57;;;10.10;99.90;;;;;;5118033;27;20039;-69
2022/05/22 03:16:19;;;;;;;10.43;5.60;;;10.10;99.90;;;;;;5141592;27;20042;-69
2022/05/22 03:18:45;;;;;;;8.40;5.82;;;10.10;99.90;;;;;;5146842;27;20043;-69
2022/05/22 03:21:12;;;;;;;10.30;5.57;;;10.10;99.90;;;;;;5141931;27;20031;-70
2022/05/22 03:23:38;;;;;;;10.98;5.60;;;10.10;99.90;;;;;;5144617;27;20042;-69
2022/05/22 03:26:04;;;;;;;10.68;5.70;;;10.10;99.90;;;;;;5123378;27;20060;-69
2022/05/22 03:28:30;;;;;;;11.35;5.90;;;10.10;99.90;;;;;;5144918;27;20039;-70
2022/05/22 03:30:55;;;;;;;12.15;5.88;;;10.10;99.90;;;;;;5145886;27;20045;-69
2022/05/22 03:33:21;;;;;;;11.10;5.95;;;10.00;99.90;;;;;;5145331;27;20070;-71
2022/05/22 03:35:46;;;;;;;10.05;5.30;;;10.00;99.90;;;;;;5123212;27;20595;-69
2022/05/22 03:38:12;;;;;;;11.90;5.70;;;10.00;99.90;;;;;;5143876;27;20114;-70
2022/05/22 03:40:45;;;;;;;8.63;5.53;;;10.00;99.90;;;;;;5143765;27;20683;-69
2022/05/22 03:43:12;;;;;;;9.87;5.40;;;9.90;99.90;;;;;;5120002;27;20071;-71
2022/05/22 03:45:37;;;;;;;9.80;5.28;;;9.90;99.90;;;;;;5145619;27;20030;-70
2022/05/22 03:48:03;;;;;;;8.93;5.40;;;9.90;99.90;;;;;;5145854;27;20095;-70
2022/05/22 03:50:29;;;;;;;9.73;5.60;;;9.90;99.90;;;;;;5143284;27;20394;-69
2022/05/22 03:52:56;;;;;;;10.00;5.30;;;9.90;99.90;;;;;;5145328;27;20043;-69
2022/05/22 03:55:22;;;;;;;10.98;7.05;;;9.90;99.90;;;;;;5142621;27;20031;-70
2022/05/22 03:57:48;;;;;;;11.65;6.13;;;9.90;99.90;;;;;;5143672;27;20379;-69
2022/05/22 04:00:17;;;;;;;8.93;5.57;;;9.80;99.90;;;;;;5122204;27;20456;-71
2022/05/22 04:02:43;;;;;;;10.48;5.75;;;9.80;99.90;;;;;;5143880;27;20368;-70
2022/05/22 04:05:09;;;;;;;11.90;5.85;;;9.80;99.90;;;;;;5142730;27;20042;-69
2022/05/22 04:07:37;;;;;;;9.88;5.63;;;9.70;99.90;;;;;;5145430;27;20062;-70
2022/05/22 04:10:03;;;;;;;9.63;5.60;;;9.80;99.90;;;;;;5121453;27;20099;-69
2022/05/22 04:12:29;;;;;;;12.00;6.00;;;9.70;99.90;;;;;;5121887;27;20035;-69
2022/05/22 04:14:54;;;;;;;9.63;6.38;;;9.80;99.90;;;;;;5136482;27;20058;-69
2022/05/22 04:17:20;;;;;;;9.40;6.57;;;9.80;99.90;;;;;;5102243;27;20516;-68
2022/05/22 04:19:46;;;;;;;10.70;6.13;;;9.80;99.90;;;;;;5122456;27;20126;-69
2022/05/22 04:22:11;;;;;;;9.65;6.40;;;9.80;99.90;;;;;;5103369;28;20061;-69
2022/05/22 04:27:21;;;;;;;11.27;6.05;;;9.90;99.90;;;;;;5123208;27;20046;-69
2022/05/22 04:29:47;;;;;;;12.13;6.28;;;9.90;99.90;;;;;;5121229;27;20044;-70
2022/05/22 04:32:12;;;;;;;8.73;6.38;;;10.00;99.90;;;;;;5101946;27;20062;-71
2022/05/22 04:34:38;;;;;;;11.25;6.38;;;10.00;99.90;;;;;;5122390;27;20736;-71
2022/05/22 04:37:04;;;;;;;10.68;6.15;;;10.00;99.90;;;;;;5122657;27;20450;-71
2022/05/22 04:39:30;;;;;;;12.27;5.78;;;10.10;99.90;;;;;;5118298;27;20447;-71
2022/05/22 04:41:55;;;;;;;11.05;6.75;;;10.10;99.90;;;;;;5123265;27;20035;-69
2022/05/22 04:44:21;;;;;;;11.18;5.90;;;10.20;99.90;;;;;;5103015;27;20055;-70
2022/05/22 04:46:46;;;;;;;9.48;5.93;;;10.40;99.90;;;;;;5101350;27;20423;-70
2022/05/22 04:49:12;;;;;;;9.30;6.72;;;10.60;99.90;;;;;;5084366;27;20036;-72
2022/05/22 04:51:38;;;;;;;10.35;6.32;;;11.10;99.90;;;;;;5101941;28;20048;-69
2022/05/22 04:54:04;;;;;;;10.30;5.78;;;11.70;99.90;;;;;;5123711;27;20039;-70
2022/05/22 04:56:30;;;;;;;8.82;5.55;;;12.60;99.90;;;;;;5099981;27;20035;-70
2022/05/22 04:58:56;;;;;;;8.70;5.38;;;12.90;99.90;;;;;;5099085;27;20051;-70
2022/05/22 05:01:21;;;;;;;8.52;4.72;;;13.60;99.90;;;;;;5100666;27;20031;-70
2022/05/22 05:03:47;;;;;;;11.77;5.25;;;14.40;99.90;;;;;;5121708;27;20077;-70
2022/05/22 05:06:13;;;;;;;10.55;5.32;;;14.80;99.90;;;;;;5102511;28;20042;-71
2022/05/22 05:08:38;;;;;;;8.82;4.93;;;15.10;99.90;;;;;;5123191;27;20039;-70
2022/05/22 05:11:04;;;;;;;11.05;4.75;;;15.90;99.90;;;;;;5121323;27;20127;-70
2022/05/22 05:13:30;;;;;;;8.00;4.72;;;16.20;99.90;;;;;;5123588;27;20026;-71
2022/05/22 05:16:03;;;;;;;8.57;4.70;;;16.60;99.90;;;;;;5136371;27;20043;-71
2022/05/22 05:18:29;;;;;;;9.85;4.63;;;17.10;99.90;;;;;;5120975;27;20376;-70
2022/05/22 05:20:58;;;;;;;8.57;4.15;;;17.50;99.90;;;;;;5119475;27;20436;-71
2022/05/22 05:23:24;;;;;;;8.55;4.50;;;17.70;99.90;;;;;;5114503;27;20050;-70
2022/05/22 05:25:50;;;;;;;7.53;4.20;;;18.00;99.90;;;;;;5139488;27;20034;-70
2022/05/22 05:28:15;;;;;;;7.07;3.67;;;18.40;99.90;;;;;;5143258;27;20023;-70
2022/05/22 05:30:41;;;;;;;16.02;5.22;;;18.40;99.90;;;;;;5139153;27;20031;-70
2022/05/22 05:33:06;;;;;;;10.55;3.80;;;18.80;99.90;;;;;;5141487;27;20344;-68
2022/05/22 05:35:33;;;;;;;9.25;3.90;;;19.20;99.90;;;;;;5141640;27;20037;-71
2022/05/22 05:37:58;;;;;;;11.43;4.38;;;19.40;99.90;;;;;;5143607;27;20039;-68
2022/05/22 05:40:24;;;;;;;7.32;3.83;;;19.60;99.90;;;;;;5142039;27;20088;-71
2022/05/22 05:42:49;;;;;;;8.45;3.92;;;19.80;99.90;;;;;;5117671;27;20069;-70
2022/05/22 05:45:17;;;;;;;9.38;4.32;;;20.00;99.90;;;;;;5140306;27;20084;-69
2022/05/22 05:47:52;;;;;;;9.57;4.53;;;20.00;99.90;;;;;;5121306;27;20078;-71
2022/05/22 05:50:23;;;;;;;9.65;4.32;;;20.20;99.90;;;;;;5117532;27;20045;-69
2022/05/22 05:52:53;;;;;;;8.63;4.18;;;20.40;99.90;;;;;;5119808;27;20051;-69
2022/05/22 05:55:19;;;;;;;10.45;4.43;;;20.70;99.90;;;;;;5119607;27;20049;-70
2022/05/22 05:57:45;;;;;;;9.20;4.00;;;20.40;99.90;;;;;;5120145;27;20457;-69
2022/05/22 06:00:15;;;;;;;11.13;4.45;;;20.80;99.90;;;;;;5139218;27;20407;-68
2022/05/22 06:02:40;;;;;;;9.70;4.28;;;20.90;99.90;;;;;;5139666;27;20102;-68
2022/05/22 06:05:06;;;;;;;11.15;4.13;;;21.10;99.90;;;;;;5138746;27;20497;-68
2022/05/22 06:07:32;;;;;;;9.38;4.18;;;21.20;99.90;;;;;;5120826;27;20114;-66
2022/05/22 06:09:58;;;;;;;9.02;4.28;;;21.20;99.90;;;;;;5141227;27;20126;-66
2022/05/22 06:12:24;;;;;;;7.18;3.63;;;21.40;99.90;;;;;;5141259;27;20486;-67
2022/05/22 06:14:51;;;;;;;7.82;4.03;;;21.30;99.90;;;;;;5137513;27;20055;-67
2022/05/22 06:17:17;;;;;;;6.50;3.95;;;21.30;99.90;;;;;;5120026;27;20046;-67
2022/05/22 06:19:55;;;;;;;11.27;4.28;;;21.30;99.90;;;;;;5118930;27;20464;-68
2022/05/22 06:22:22;;;;;;;10.35;4.05;;;21.60;99.90;;;;;;5117801;27;20084;-67
2022/05/22 06:24:48;;;;;;;8.60;3.95;;;21.60;99.90;;;;;;5135577;27;20031;-67
2022/05/22 06:27:14;;;;;;;8.23;3.92;;;22.00;99.90;;;;;;5142606;27;20057;-67
2022/05/22 06:29:41;;;;;;;7.97;3.80;;;22.20;99.90;;;;;;5142144;27;20451;-68
2022/05/22 06:32:08;;;;;;;9.43;3.70;;;22.50;99.90;;;;;;5120299;27;20122;-66
2022/05/22 06:34:41;;;;;;;11.00;4.45;;;22.40;99.90;;;;;;5137151;27;20050;-67
2022/05/22 06:37:09;;;;;;;11.32;4.15;;;22.50;99.90;;;;;;5141444;27;20064;-66
2022/05/22 06:39:51;;;;;;;12.32;3.60;;;22.30;99.90;;;;;;5120289;27;20039;-67
2022/05/22 06:42:21;;;;;;;9.85;4.10;;;22.40;99.90;;;;;;5117304;27;20099;-66
2022/05/22 06:44:51;;;;;;;8.65;3.65;;;22.60;99.90;;;;;;5119821;27;20420;-67
2022/05/22 06:47:17;;;;;;;9.10;3.45;;;23.00;99.90;;;;;;5121627;27;20481;-67
2022/05/22 06:49:43;;;;;;;9.65;3.65;;;23.10;99.40;;;;;;5141167;27;20039;-67
2022/05/22 06:52:09;;;;;;;10.40;3.55;;;22.70;99.50;;;;;;5120555;27;20481;-68
2022/05/22 06:54:34;;;;;;;7.78;3.58;;;22.40;99.70;;;;;;5123293;27;20466;-67
2022/05/22 06:57:00;;;;;;;11.40;4.18;;;22.50;99.70;;;;;;5122614;27;20383;-67
2022/05/22 06:59:26;;;;;;;13.23;3.65;;;22.40;99.90;;;;;;5123373;27;20031;-66
2022/05/22 07:01:52;;;;;;;10.27;3.40;;;22.10;99.90;;;;;;5145127;27;20462;-67
2022/05/22 07:04:21;;;;;;;12.40;3.85;;;21.50;99.90;;;;;;5124968;27;20638;-66
2022/05/22 07:06:48;;;;;;;10.10;3.25;;;21.20;99.90;;;;;;5144625;27;20548;-66
2022/05/22 07:09:14;;;;;;;9.68;3.58;;;20.80;99.90;;;;;;5121411;27;20039;-67
2022/05/22 07:11:40;;;;;;;13.75;4.10;;;20.60;99.90;;;;;;5121256;27;20050;-67
2022/05/22 07:14:13;;;;;;;13.82;3.40;;;20.40;99.90;;;;;;5142803;27;20031;-67
2022/05/22 07:16:40;;;;;;;11.50;3.60;;;20.20;99.90;;;;;;5145837;27;20062;-66
2022/05/22 07:19:08;;;;;;;10.93;3.10;;;20.00;99.90;;;;;;5144067;27;20348;-66
2022/05/22 07:21:34;;;;;;;9.50;3.13;;;20.10;99.90;;;;;;5146119;27;20042;-68
2022/05/22 07:23:59;;;;;;;11.55;3.38;;;20.00;99.90;;;;;;5146358;27;20035;-66
2022/05/22 07:26:26;;;;;;;8.68;2.92;;;20.10;99.90;;;;;;5147993;27;20038;-67
2022/05/22 07:28:52;;;;;;;8.23;2.90;;;20.10;99.90;;;;;;5147094;27;20035;-64
2022/05/22 07:31:21;;;;;;;9.68;3.00;;;20.00;99.90;;;;;;5144128;27;20585;-67
2022/05/22 07:33:46;;;;;;;9.07;3.10;;;20.10;99.90;;;;;;5141570;27;20136;-65
2022/05/22 07:36:12;;;;;;;7.13;2.85;;;20.20;99.90;;;;;;5143849;27;20114;-66
2022/05/22 07:38:38;;;;;;;8.02;2.60;;;20.30;99.90;;;;;;5142585;27;20383;-66
2022/05/22 07:41:04;;;;;;;9.88;3.05;;;20.30;99.90;;;;;;5117404;27;20047;-68
2022/05/22 07:43:29;;;;;;;8.30;2.55;;;20.60;99.90;;;;;;5141437;27;20036;-67
2022/05/22 07:45:55;;;;;;;10.88;2.70;;;20.60;99.90;;;;;;5143269;27;20059;-66
2022/05/22 07:48:21;;;;;;;8.40;2.90;;;20.50;99.90;;;;;;5140157;27;20098;-66
2022/05/22 07:50:46;;;;;;;9.77;2.97;;;20.50;99.90;;;;;;5138630;27;20076;-66
2022/05/22 07:53:13;;;;;;;9.82;3.15;;;20.50;99.90;;;;;;5116341;27;20035;-66
2022/05/22 07:55:39;;;;;;;11.20;3.13;;;20.50;99.90;;;;;;5138581;27;20039;-68
2022/05/22 07:58:05;;;;;;;8.65;3.35;;;20.50;99.90;;;;;;5138424;27;21138;-66
2022/05/22 08:00:31;;;;;;;9.20;2.60;;;20.30;99.90;;;;;;5137251;27;20108;-66
2022/05/22 08:02:56;;;;;;;7.90;2.80;;;20.30;99.90;;;;;;5138499;27;20031;-67
2022/05/22 08:05:22;;;;;;;8.68;2.70;;;20.30;99.90;;;;;;5099778;27;20054;-66
2022/05/22 08:07:48;;;;;;;7.55;2.90;;;20.30;99.90;;;;;;5116623;27;20043;-66
2022/05/22 08:10:15;;;;;;;8.85;3.17;;;20.30;99.90;;;;;;5138320;27;20106;-68
2022/05/22 08:12:44;;;;;;;9.95;2.80;;;20.40;99.90;;;;;;5138401;27;20031;-67
2022/05/22 08:15:13;;;;;;;7.13;2.72;;;20.40;99.90;;;;;;5140061;27;20043;-66
2022/05/22 08:17:38;;;;;;;10.70;3.00;;;20.40;99.90;;;;;;5114375;27;20043;-66
2022/05/22 08:20:12;;;;;;;8.02;2.42;;;20.30;99.90;;;;;;5146087;27;20039;-66
2022/05/22 08:22:40;;;;;;;6.60;2.00;;;20.10;99.90;;;;;;5114696;27;20050;-67
2022/05/22 08:25:07;;;;;;;8.52;2.40;;;19.70;99.90;;;;;;5143906;27;20103;-67
2022/05/22 08:27:34;;;;;;;8.13;2.60;;;19.90;99.90;;;;;;5125760;27;20035;-68
2022/05/22 08:30:00;;;;;;;7.35;2.53;;;19.70;99.90;;;;;;5128735;27;20050;-66
2022/05/22 08:32:26;;;;;;;8.18;2.95;;;19.80;99.90;;;;;;5146479;27;20054;-67
2022/05/22 08:34:52;;;;;;;10.30;2.42;;;19.70;99.90;;;;;;5144207;27;20050;-67
2022/05/22 08:37:18;;;;;;;9.77;2.88;;;19.70;99.90;;;;;;5114485;27;20363;-67
2022/05/22 08:39:44;;;;;;;6.55;2.20;;;19.90;99.90;;;;;;5146625;27;20032;-68
2022/05/22 08:42:16;;;;;;;9.75;2.65;;;19.90;99.90;;;;;;5145882;27;20038;-67
2022/05/22 08:44:42;;;;;;;6.55;2.30;;;19.90;99.90;;;;;;5120088;27;20563;-67
2022/05/22 08:47:23;;;;;;;8.55;2.70;;;19.70;99.90;;;;;;5146451;27;20038;-68
2022/05/22 08:49:57;;;;;;;9.50;2.38;;;19.80;99.90;;;;;;5145680;27;20050;-67
2022/05/22 08:53:01;;;;;;;9.35;2.45;;;19.70;99.90;;;;;;5146071;27;20296;-67
2022/05/22 08:59:05;;;;;;;8.27;2.42;;;19.70;99.90;;;;;;5145508;27;20082;-68
2022/05/22 09:01:45;;;;;;;10.57;2.60;;;20.00;99.90;;;;;;5108029;27;20304;-67
2022/05/22 09:04:30;;;;;;;9.32;2.40;;;19.90;99.90;;;;;;5137357;27;20109;-67
2022/05/22 09:07:17;;;;;;;6.10;2.13;;;20.00;99.90;;;;;;5139204;27;20497;-68
2022/05/22 09:09:48;;;;;;;6.40;2.25;;;20.10;99.90;;;;;;5141145;27;20126;-68
2022/05/22 09:12:39;;;;;;;7.55;2.30;;;20.20;99.90;;;;;;5139755;27;20058;-66
2022/05/22 09:15:26;;;;;;;5.90;2.20;;;20.40;99.90;;;;;;5137272;27;20080;-67
2022/05/22 09:17:59;;;;;;;6.80;2.45;;;20.30;99.90;;;;;;5112998;27;20079;-66
2022/05/22 09:20:40;;;;;;;9.18;2.13;;;20.00;99.90;;;;;;5139677;27;20088;-67
2022/05/22 09:23:11;;;;;;;9.88;2.53;;;20.00;99.90;;;;;;5141621;27;20041;-66
2022/05/22 09:25:51;;;;;;;10.48;2.60;;;19.90;99.90;;;;;;5142175;27;20045;-65
2022/05/22 09:28:32;;;;;;;6.57;2.10;;;20.20;99.90;;;;;;5134354;27;20256;-68
2022/05/22 09:31:17;;;;;;;9.60;2.60;;;20.40;99.90;;;;;;5134725;27;20034;-67
2022/05/22 09:34:06;;;;;;;6.15;2.50;;;20.60;99.90;;;;;;5117447;27;20042;-66
2022/05/22 09:36:58;;;;;;;7.80;2.50;;;20.80;99.90;;;;;;5127779;27;20058;-67
2022/05/22 09:40:05;;;;;;;7.05;2.30;;;20.90;99.90;;;;;;5094150;27;20082;-66
2022/05/22 09:42:51;;;;;;;8.18;2.28;;;21.00;99.90;;;;;;5127080;27;20056;-66
2022/05/22 09:45:17;;;;;;;7.18;2.25;;;21.00;99.90;;;;;;5136543;27;20107;-66
2022/05/22 09:47:54;;;;;;;8.45;2.53;;;20.80;99.90;;;;;;5140625;27;20063;-66
2022/05/22 09:51:05;;;;;;;10.93;2.33;;;20.50;99.80;;;;;;5139662;27;20030;-66
2022/05/22 09:54:00;;;;;;;8.20;2.08;;;20.60;99.90;;;;;;5125301;27;20035;-66
2022/05/22 09:56:54;;;;;;;6.78;1.90;;;20.70;99.90;;;;;;5142554;27;20039;-67
2022/05/22 09:59:38;;;;;;;10.68;2.35;;;20.90;99.80;;;;;;5117392;27;20082;-66
2022/05/22 10:02:16;;;;;;;5.10;1.98;;;21.10;99.90;;;;;;5142503;27;20058;-66
2022/05/22 10:05:04;;;;;;;8.27;2.10;;;21.20;99.40;;;;;;5117762;27;20110;-66
2022/05/22 10:07:49;;;;;;;7.68;2.00;;;21.30;99.20;;;;;;5138457;27;20101;-66
2022/05/22 10:10:30;;;;;;;7.00;2.33;;;21.30;99.50;;;;;;5138863;27;20066;-67
2022/05/22 10:13:28;;;;;;;6.93;2.28;;;21.30;98.90;;;;;;5138618;27;20043;-66
2022/05/22 10:16:04;;;;;;;9.20;2.55;;;21.20;98.80;;;;;;5127307;27;20052;-66
2022/05/22 10:19:02;;;;;;;10.05;2.65;;;21.40;98.90;;;;;;5122124;28;20070;-65
2022/05/22 10:21:50;;;;;;;10.20;2.20;;;21.40;98.60;;;;;;5105766;28;20054;-66
2022/05/22 10:24:52;;;;;;;8.70;2.35;;;21.60;99.00;;;;;;5101177;28;20048;-66
2022/05/22 10:27:33;;;;;;;9.68;2.40;;;21.70;98.70;;;;;;5112107;27;20046;-66
2022/05/22 10:30:29;;;;;;;7.10;2.00;;;21.80;98.60;;;;;;5118550;27;20035;-66
2022/05/22 10:33:05;;;;;;;5.68;1.90;;;21.80;97.20;;;;;;5131254;27;20039;-67
2022/05/22 10:35:51;;;;;;;7.68;1.95;;;21.60;97.80;;;;;;5132945;27;20042;-65
2022/05/22 10:38:28;;;;;;;8.98;2.03;;;21.90;97.00;;;;;;5130097;27;20084;-66
2022/05/22 10:43:51;;;;;;;6.68;2.17;;;22.10;97.10;;;;;;5129103;27;20929;-66
2022/05/22 10:46:17;;;;;;;3.65;1.20;;;22.30;95.80;;;;;;5126978;27;20046;-67
2022/05/22 10:48:53;;;;;;;5.00;1.60;;;22.40;94.10;;;;;;5129317;27;20032;-66
2022/05/22 10:51:26;;;;;;;6.72;1.85;;;22.50;94.00;;;;;;5127587;27;20099;-66
2022/05/22 10:54:00;;;;;;;5.82;1.35;;;22.60;94.10;;;;;;5124309;27;20455;-66
2022/05/22 10:56:29;;;;;;;5.38;1.73;;;22.60;94.20;;;;;;5120895;27;20031;-66
2022/05/22 10:58:58;;;;;;;5.30;1.58;;;22.50;94.90;;;;;;5105857;27;20130;-65
2022/05/22 11:01:27;;;;;;;5.25;1.38;;;22.40;93.90;;;;;;5093200;27;20471;-66
2022/05/22 11:04:08;;;;;;;4.07;1.30;;;22.40;94.10;;;;;;5106713;27;20127;-66
2022/05/22 11:06:50;;;;;;;3.65;1.05;;;22.60;93.60;;;;;;5108235;27;20028;-65
2022/05/22 11:09:26;;;;;;;3.65;1.15;;;22.50;92.20;;;;;;5113828;27;20036;-66
2022/05/22 11:12:02;;;;;;;5.78;1.50;;;22.60;92.70;;;;;;5114175;27;20122;-64
2022/05/22 11:14:28;;;;;;;5.40;1.85;;;22.40;93.90;;;;;;5100791;27;20046;-65
2022/05/22 11:16:54;;;;;;;4.63;1.65;;;22.50;93.90;;;;;;5139470;27;20039;-66
2022/05/22 11:19:25;;;;;;;6.20;1.70;;;22.40;94.10;;;;;;5140022;27;20456;-66
2022/05/22 11:22:06;;;;;;;5.72;1.80;;;22.40;94.10;;;;;;5146295;27;20433;-63
2022/05/22 11:25:01;;;;;;;4.82;1.63;;;22.50;94.20;;;;;;5134110;27;20035;-63
2022/05/22 11:27:40;;;;;;;7.20;1.92;;;22.60;93.30;;;;;;5139384;27;20436;-65
2022/05/22 11:30:30;;;;;;;4.82;1.60;;;22.60;94.20;;;;;;5141135;27;20054;-63
2022/05/22 11:33:32;;;;;;;3.65;1.52;;;22.80;92.90;;;;;;5138271;27;20039;-65
2022/05/22 11:36:18;;;;;;;4.45;1.90;;;22.90;93.20;;;;;;5142833;27;20042;-65
2022/05/22 11:39:24;;;;;;;6.60;2.08;;;22.70;93.50;;;;;;5139642;27;20396;-67
2022/05/22 11:41:54;;;;;;;4.07;1.60;;;22.80;93.80;;;;;;5141264;27;20034;-65
2022/05/22 11:44:35;;;;;;;5.32;1.50;;;22.90;93.80;;;;;;5137524;27;20042;-65
2022/05/22 11:47:24;;;;;;;4.80;1.50;;;23.10;93.20;;;;;;5133410;27;20042;-65
2022/05/22 11:50:20;;;;;;;5.00;1.60;;;23.30;92.40;;;;;;5081964;27;20294;-65
2022/05/22 11:53:02;;;;;;;5.47;2.00;;;23.30;92.10;;;;;;5144008;27;20045;-67
2022/05/22 11:55:43;;;;;;;3.92;1.73;;;23.20;91.50;;;;;;5137218;27;20491;-66
2022/05/22 11:58:33;;;;;;;4.95;1.45;;;23.30;91.90;;;;;;5140355;27;20049;-66
2022/05/22 12:01:14;;;;;;;4.30;1.67;;;23.50;92.10;;;;;;5138624;27;20069;-65
2022/05/22 12:03:59;;;;;;;5.68;1.85;;;23.50;92.10;;;;;;5138306;27;20043;-65
2022/05/22 12:06:27;;;;;;;6.03;1.58;;;23.40;91.90;;;;;;5139446;27;20048;-65
2022/05/22 12:09:07;;;;;;;5.47;1.90;;;23.40;92.10;;;;;;5141573;27;20062;-65
2022/05/22 12:11:49;;;;;;;5.80;1.38;;;23.40;92.60;;;;;;5122000;27;20035;-66
2022/05/22 12:14:59;;;;;;;5.40;1.85;;;23.30;92.90;;;;;;5138797;27;20109;-65
2022/05/22 12:17:46;;;;;;;5.28;2.13;;;23.30;92.60;;;;;;5061919;28;20099;-65
2022/05/22 12:20:24;;;;;;;3.60;1.42;;;23.30;92.40;;;;;;5056551;28;20055;-65
2022/05/22 12:23:13;;;;;;;6.57;1.70;;;23.10;93.20;;;;;;5114407;27;20054;-65
2022/05/22 12:25:48;;;;;;;6.75;2.13;;;23.20;93.50;;;;;;5109881;27;20047;-65
2022/05/22 12:28:39;;;;;;;4.88;1.60;;;23.20;93.90;;;;;;5136188;27;20034;-67
2022/05/22 12:31:25;;;;;;;8.00;1.73;;;23.40;93.10;;;;;;5131298;27;20370;-65
2022/05/22 12:33:53;;;;;;;4.85;1.60;;;23.60;93.00;;;;;;5131490;27;20037;-65
2022/05/22 12:36:26;;;;;;;4.43;1.40;;;23.60;92.80;;;;;;5133246;27;20094;-65
2022/05/22 12:39:07;;;;;;;5.50;1.48;;;23.60;93.10;;;;;;5135028;27;20039;-65
2022/05/22 12:41:54;;;;;;;10.27;1.90;;;23.70;93.30;;;;;;5135543;27;20066;-65
2022/05/22 12:44:20;;;;;;;6.85;1.83;;;23.80;93.50;;;;;;5133220;27;20078;-65
2022/05/22 12:46:47;;;;;;;6.93;2.03;;;24.10;93.50;;;;;;5138559;27;20501;-65
2022/05/22 12:49:28;;;;;;;6.65;1.85;;;23.90;93.50;;;;;;5136724;27;20346;-66
2022/05/22 12:52:06;;;;;;;5.22;1.70;;;23.80;92.80;;;;;;5135176;27;20118;-65
2022/05/22 12:54:37;;;;;;;5.70;1.75;;;23.70;93.00;;;;;;5105938;27;20071;-66
2022/05/22 12:57:23;;;;;;;5.88;1.55;;;23.50;92.90;;;;;;5139572;27;20324;-66
2022/05/22 13:00:00;;;;;;;6.93;1.70;;;23.20;93.10;;;;;;5138617;27;20051;-65
2022/05/22 13:02:36;;;;;;;4.38;1.40;;;23.30;93.40;;;;;;5138779;27;20636;-65
2022/05/22 13:05:12;;;;;;;5.43;1.77;;;23.00;93.80;;;;;;5094150;27;20070;-65
2022/05/22 13:07:42;;;;;;;4.95;1.85;;;23.00;93.60;;;;;;5101099;27;20158;-65
2022/05/22 13:10:41;;;;;;;6.60;1.85;;;23.40;93.00;;;;;;5140400;27;20455;-67
2022/05/22 13:13:16;;;;;;;3.53;1.52;;;23.00;93.50;;;;;;5138534;27;20042;-65
2022/05/22 13:16:24;;;;;;;4.38;1.48;;;23.10;93.30;;;;;;5116453;27;20051;-65
2022/05/22 13:18:50;;;;;;;3.55;1.45;;;23.10;93.60;;;;;;5087848;27;20055;-65
2022/05/22 13:21:40;;;;;;;6.82;1.58;;;23.20;93.60;;;;;;5137707;27;20036;-65